Time;durP1;ratioP1;P1;durP2;ratioP2;P2;SDS_P1;SDS_P2;PMS_P1;PMS_P2;Temp;Humidity;BMP_temperature;BMP_pressure;BME280_temperature;BME280_humidity;BME280_pressure;Samples;Min_cycle;Max_cycle;Signal;HPM_P1;HPM_P2
2023/10/15 00:01:31;;;;;;;;;2.50;1.25;;;;;11.66;72.69;101493.94;5100503;27;45362;-81
2023/10/15 00:03:57;;;;;;;;;1.25;1.00;;;;;11.59;72.60;101498.72;5100662;27;46168;-82
2023/10/15 00:06:23;;;;;;;;;1.00;1.00;;;;;11.60;72.45;101500.44;5102123;27;45274;-81
2023/10/15 00:08:48;;;;;;;;;1.50;1.50;;;;;11.38;72.85;101467.72;5103023;27;45151;-80
2023/10/15 00:11:17;;;;;;;;;2.00;2.00;;;;;11.48;72.69;101501.00;5101554;27;45365;-79
2023/10/15 00:13:43;;;;;;;;;1.00;1.00;;;;;11.33;73.13;101483.03;5080140;27;45288;-80
2023/10/15 00:16:09;;;;;;;;;1.00;1.00;;;;;11.40;72.75;101505.78;5077424;27;45349;-81
2023/10/15 00:18:36;;;;;;;;;2.50;1.75;;;;;11.41;72.97;101492.41;5082030;27;45713;-81
2023/10/15 00:21:11;;;;;;;;;2.00;2.00;;;;;11.40;73.45;101495.13;5084287;28;45193;-81
2023/10/15 00:23:37;;;;;;;;;3.00;1.50;;;;;11.36;73.43;101497.09;5096562;27;46152;-81
2023/10/15 00:26:04;;;;;;;;;0.00;0.00;;;;;11.31;74.21;101483.09;5097934;27;45342;-81
2023/10/15 00:28:31;;;;;;;;;4.25;1.00;;;;;11.30;73.37;101484.03;5104378;27;45184;-80
2023/10/15 00:30:57;;;;;;;;;2.50;1.25;;;;;11.25;74.46;101487.84;5103080;27;45373;-80
2023/10/15 00:33:22;;;;;;;;;2.50;2.00;;;;;11.27;74.35;101493.97;5099271;27;46208;-82
2023/10/15 00:35:53;;;;;;;;;3.50;1.00;;;;;11.05;74.83;101470.94;5098721;27;45470;-80
2023/10/15 00:38:24;;;;;;;;;3.50;2.00;;;;;10.97;75.18;101477.53;5079970;27;45416;-79
2023/10/15 00:41:00;;;;;;;;;2.00;1.00;;;;;11.10;74.88;101506.22;5083584;27;45459;-81
2023/10/15 00:43:26;;;;;;;;;1.00;1.00;;;;;11.04;75.86;101495.81;5084394;27;46228;-81
2023/10/15 00:45:52;;;;;;;;;2.50;2.00;;;;;11.01;75.14;101487.13;5084132;27;45422;-81
2023/10/15 00:48:23;;;;;;;;;1.00;1.00;;;;;10.97;75.21;101462.44;5099948;27;45589;-84
2023/10/15 00:50:51;;;;;;;;;2.50;2.50;;;;;11.12;76.06;101499.03;5104916;27;45322;-82
2023/10/15 00:53:24;;;;;;;;;6.25;3.00;;;;;11.10;75.68;101506.22;5102660;27;45370;-82
2023/10/15 00:56:04;;;;;;;;;2.25;2.25;;;;;11.09;75.99;101504.50;5090209;27;45468;-81
2023/10/15 01:03:56;;;;;;;;;2.75;2.75;;;;;11.03;76.22;101499.41;5080003;27;45939;-82
2023/10/15 01:06:38;;;;;;;;;4.50;2.00;;;;;10.99;76.03;101492.50;5083874;27;45313;-80
2023/10/15 01:09:27;;;;;;;;;2.00;2.00;;;;;11.03;76.53;101504.75;5089983;27;45436;-79
2023/10/15 01:11:56;;;;;;;;;2.00;2.00;;;;;10.91;76.15;101487.50;5100393;27;45866;-80
2023/10/15 01:14:32;;;;;;;;;3.00;2.25;;;;;10.99;76.76;101507.63;5087507;27;46316;-82
2023/10/15 01:17:01;;;;;;;;;2.00;2.00;;;;;10.95;76.13;101498.03;5081338;27;45314;-80
2023/10/15 01:19:33;;;;;;;;;6.50;1.75;;;;;11.01;76.30;101497.75;5090868;27;45227;-83
2023/10/15 01:22:03;;;;;;;;;2.00;1.75;;;;;11.01;75.97;101505.75;5101443;27;45448;-82
2023/10/15 01:24:36;;;;;;;;;3.00;1.25;;;;;10.83;76.14;101470.16;5100082;27;45783;-84
2023/10/15 01:27:12;;;;;;;;;2.00;2.00;;;;;11.00;76.47;101485.38;5102388;27;45297;-81
2023/10/15 01:29:37;;;;;;;;;4.25;1.75;;;;;11.13;75.73;101483.91;5095568;27;45459;-81
2023/10/15 01:32:07;;;;;;;;;2.00;1.00;;;;;11.20;75.90;101480.94;5080565;27;45239;-82
2023/10/15 01:34:37;;;;;;;;;3.50;3.00;;;;;11.15;75.54;101474.94;5079456;27;45372;-84
2023/10/15 01:37:10;;;;;;;;;4.00;2.75;;;;;11.31;74.74;101492.88;5082266;28;45239;-82
2023/10/15 01:39:39;;;;;;;;;2.50;2.50;;;;;11.32;75.13;101482.16;5093287;27;45229;-79
2023/10/15 01:42:06;;;;;;;;;2.75;2.75;;;;;10.99;75.35;101428.63;5100994;27;45313;-79
2023/10/15 01:44:47;;;;;;;;;2.00;2.00;;;;;11.28;75.59;101483.22;5086394;27;45345;-82
2023/10/15 01:47:13;;;;;;;;;3.00;2.00;;;;;11.22;75.84;101486.19;5079229;27;46026;-83
2023/10/15 01:49:38;;;;;;;;;2.00;2.00;;;;;11.19;74.91;101472.97;5088645;27;45315;-82
2023/10/15 01:52:10;;;;;;;;;2.00;2.00;;;;;11.13;75.93;101462.63;5085732;28;45187;-83
2023/10/15 01:54:36;;;;;;;;;9.00;2.25;;;;;11.13;75.58;101468.81;5083977;27;45454;-79
2023/10/15 01:57:06;;;;;;;;;2.00;2.00;;;;;11.19;75.96;101481.84;5111052;27;45285;-82
2023/10/15 01:59:48;;;;;;;;;2.50;2.50;;;;;11.15;75.52;101490.03;5103895;27;45435;-81
2023/10/15 02:02:23;;;;;;;;;3.50;2.00;;;;;11.03;75.73;101482.59;5096143;27;45298;-81
2023/10/15 02:04:50;;;;;;;;;4.00;2.00;;;;;11.13;75.60;101506.09;5079343;27;45323;-81
2023/10/15 02:07:20;;;;;;;;;3.00;2.00;;;;;10.82;75.58;101463.13;5079242;28;45369;-81
2023/10/15 02:09:46;;;;;;;;;1.75;1.75;;;;;10.62;75.58;101430.22;5096431;27;45398;-83
2023/10/15 02:12:19;;;;;;;;;5.75;2.50;;;;;10.71;75.47;101465.38;5101573;27;45324;-80
2023/10/15 02:14:47;;;;;;;;;2.00;2.00;;;;;10.79;75.94;101489.81;5082713;27;46504;-82
2023/10/15 02:17:18;;;;;;;;;1.00;1.00;;;;;10.89;75.48;101517.78;5104280;27;45222;-81
2023/10/15 02:19:44;;;;;;;;;2.50;1.75;;;;;10.84;75.73;101511.81;5101061;27;45414;-80
2023/10/15 02:22:14;;;;;;;;;1.75;1.75;;;;;10.72;76.37;101491.03;5104626;27;45509;-81
2023/10/15 02:24:47;;;;;;;;;2.50;1.75;;;;;10.46;75.95;101457.56;5104869;27;45383;-81
2023/10/15 02:27:23;;;;;;;;;1.25;1.25;;;;;10.66;76.46;101483.28;5097070;27;45547;-80
2023/10/15 02:29:51;;;;;;;;;4.00;2.25;;;;;10.78;75.44;101504.06;5080737;27;45529;-81
2023/10/15 02:34:52;;;;;;;;;4.00;1.00;;;;;10.87;75.21;101509.88;5083695;27;45555;-80
2023/10/15 02:37:19;;;;;;;;;1.00;0.00;;;;;10.79;75.47;101511.13;5083204;27;45347;-82
2023/10/15 02:39:51;;;;;;;;;2.00;1.25;;;;;10.83;75.53;101500.28;5082014;27;45372;-82
2023/10/15 02:42:20;;;;;;;;;1.00;1.00;;;;;10.78;76.02;101509.38;5081547;27;45329;-84
2023/10/15 02:44:50;;;;;;;;;0.50;0.25;;;;;10.81;75.04;101519.94;5079444;28;47597;-81
2023/10/15 02:47:28;;;;;;;;;1.25;1.25;;;;;10.58;75.75;101465.03;5089619;27;45446;-82
2023/10/15 02:50:03;;;;;;;;;1.50;1.50;;;;;10.75;75.82;101501.53;5085763;27;45523;-81
2023/10/15 02:52:35;;;;;;;;;1.50;1.50;;;;;10.84;75.43;101519.78;5080520;28;45299;-82
2023/10/15 02:55:09;;;;;;;;;0.25;0.25;;;;;10.80;75.69;101520.81;5079957;27;45531;-81
2023/10/15 02:57:40;;;;;;;;;2.00;2.00;;;;;10.78;75.21;101517.38;5079061;27;45304;-82
2023/10/15 03:00:18;;;;;;;;;3.25;1.50;;;;;10.69;75.65;101504.47;5081755;27;45413;-80
2023/10/15 03:02:44;;;;;;;;;1.50;1.50;;;;;10.67;75.36;101520.47;5081829;27;45464;-82
2023/10/15 03:05:15;;;;;;;;;1.00;1.00;;;;;10.54;75.50;101498.84;5081886;27;45345;-80
2023/10/15 03:07:44;;;;;;;;;4.00;3.00;;;;;10.41;76.18;101483.44;5081775;27;45379;-81
2023/10/15 03:10:13;;;;;;;;;3.00;1.50;;;;;10.55;75.61;101536.97;5092818;27;45463;-79
2023/10/15 03:12:45;;;;;;;;;2.50;2.00;;;;;10.51;75.84;101533.53;5102966;27;45407;-79
2023/10/15 03:15:16;;;;;;;;;2.50;2.50;;;;;10.34;77.12;101505.00;5091116;27;45454;-83
2023/10/15 03:17:43;;;;;;;;;2.50;1.50;;;;;10.34;76.51;101506.78;5081387;27;45491;-83
2023/10/15 03:20:11;;;;;;;;;1.75;1.75;;;;;10.38;76.01;101499.53;5080987;27;45328;-81
2023/10/15 03:22:38;;;;;;;;;2.00;2.00;;;;;10.35;76.39;101489.91;5080711;28;45332;-80
2023/10/15 03:25:13;;;;;;;;;3.00;1.50;;;;;10.44;75.78;101505.50;5078272;27;46084;-81
2023/10/15 03:27:39;;;;;;;;;3.50;3.00;;;;;10.54;77.02;101527.22;5077949;27;45345;-82
2023/10/15 03:30:05;;;;;;;;;4.75;3.50;;;;;10.42;75.67;101520.66;5078280;27;45412;-81
2023/10/15 03:32:31;;;;;;;;;2.00;2.00;;;;;10.43;75.60;101530.34;5079308;27;45480;-82
2023/10/15 03:35:06;;;;;;;;;3.25;3.25;;;;;10.45;76.91;101538.25;5081586;27;46501;-80
2023/10/15 03:37:32;;;;;;;;;1.50;1.50;;;;;10.32;77.11;101540.56;5099460;27;45209;-80
2023/10/15 03:39:57;;;;;;;;;2.00;2.00;;;;;10.25;77.66;101539.03;5080358;27;45504;-81
2023/10/15 03:42:26;;;;;;;;;4.00;2.50;;;;;10.29;77.29;101543.34;5079222;28;45591;-80
2023/10/15 03:44:59;;;;;;;;;2.25;2.25;;;;;10.28;77.48;101536.25;5078516;27;46089;-84
2023/10/15 03:47:24;;;;;;;;;1.00;1.00;;;;;10.28;77.75;101541.56;5079013;28;45353;-82
2023/10/15 03:49:51;;;;;;;;;7.50;3.25;;;;;10.21;77.44;101524.13;5095706;27;45263;-80
2023/10/15 03:52:20;;;;;;;;;1.50;1.50;;;;;10.28;77.07;101544.22;5100909;27;45342;-81
2023/10/15 03:54:47;;;;;;;;;1.00;1.00;;;;;10.21;78.15;101540.06;5101063;27;45365;-81
2023/10/15 03:57:17;;;;;;;;;2.00;2.00;;;;;9.98;78.01;101507.28;5101651;27;45699;-79
2023/10/15 03:59:44;;;;;;;;;1.00;1.00;;;;;10.14;77.82;101538.56;5099458;27;45484;-81
2023/10/15 04:02:23;;;;;;;;;3.50;2.25;;;;;10.15;77.91;101541.16;5102628;27;45323;-83
2023/10/15 04:05:08;;;;;;;;;2.50;2.00;;;;;9.97;77.32;101515.31;5095950;27;45744;-81
2023/10/15 04:07:47;;;;;;;;;2.50;2.50;;;;;10.14;78.34;101557.16;5081394;27;45268;-81
2023/10/15 04:10:14;;;;;;;;;3.75;3.00;;;;;10.03;79.13;101566.44;5104740;27;45340;-81
2023/10/15 04:12:43;;;;;;;;;2.00;1.75;;;;;9.90;78.74;101551.91;5101178;27;45417;-81
2023/10/15 04:15:14;;;;;;;;;2.25;2.25;;;;;9.96;78.61;101572.03;5099299;27;46090;-83
2023/10/15 04:17:44;;;;;;;;;3.25;3.00;;;;;9.81;78.67;101554.03;5098547;27;45440;-81
2023/10/15 04:20:09;;;;;;;;;1.00;1.00;;;;;9.70;79.20;101544.66;5100620;27;45870;-84
2023/10/15 04:22:36;;;;;;;;;3.00;2.50;;;;;9.75;79.39;101557.75;5098352;27;45554;-84
2023/10/15 04:25:06;;;;;;;;;2.75;2.75;;;;;9.88;78.88;101563.47;5098563;27;46155;-80
2023/10/15 04:27:34;;;;;;;;;2.00;2.00;;;;;9.92;78.65;101570.44;5098231;27;45259;-83
2023/10/15 04:30:00;;;;;;;;;2.00;2.00;;;;;9.95;79.17;101576.50;5079092;27;45421;-80
2023/10/15 04:32:29;;;;;;;;;3.00;3.00;;;;;10.02;78.36;101582.44;5079344;28;45562;-82
2023/10/15 04:35:11;;;;;;;;;3.25;2.50;;;;;10.07;78.24;101584.94;5077613;27;45455;-82
2023/10/15 04:37:37;;;;;;;;;3.50;2.00;;;;;10.04;78.11;101591.22;5081762;27;45389;-82
2023/10/15 04:40:05;;;;;;;;;2.00;2.00;;;;;9.94;78.23;101582.72;5098811;27;45454;-82
2023/10/15 04:42:37;;;;;;;;;2.00;2.00;;;;;9.95;78.27;101588.91;5096974;27;45445;-83
2023/10/15 04:45:12;;;;;;;;;1.75;1.75;;;;;9.93;79.53;101604.91;5099160;27;45496;-81
2023/10/15 04:47:41;;;;;;;;;4.25;3.00;;;;;9.95;79.02;101610.16;5096342;27;45470;-82
2023/10/15 04:50:16;;;;;;;;;4.25;3.00;;;;;9.98;79.33;101602.06;5097870;27;45380;-83
2023/10/15 04:52:42;;;;;;;;;3.00;3.00;;;;;10.01;78.35;101601.97;5094301;27;45525;-81
2023/10/15 04:55:08;;;;;;;;;2.25;2.25;;;;;9.98;78.87;101592.31;5077369;28;47351;-81
2023/10/15 04:57:33;;;;;;;;;5.75;3.50;;;;;9.77;78.48;101545.31;5078954;27;45163;-81
2023/10/15 04:59:59;;;;;;;;;2.25;2.25;;;;;10.09;78.51;101604.34;5083467;28;45302;-82
2023/10/15 05:02:24;;;;;;;;;2.25;2.25;;;;;10.17;78.06;101594.28;5088798;27;45415;-83
2023/10/15 05:04:49;;;;;;;;;2.75;2.00;;;;;10.22;76.83;101592.34;5084372;28;62084;-84
2023/10/15 05:07:15;;;;;;;;;3.00;2.50;;;;;10.16;77.29;101584.59;5077702;27;45208;-81
2023/10/15 05:09:44;;;;;;;;;2.75;2.75;;;;;10.20;76.55;101575.56;5094282;27;45469;-80
2023/10/15 05:12:10;;;;;;;;;4.00;2.50;;;;;10.31;76.75;101589.34;5092020;27;45352;-82
2023/10/15 05:14:36;;;;;;;;;3.00;3.00;;;;;10.33;77.33;101593.66;5097854;27;46347;-84
2023/10/15 05:17:01;;;;;;;;;3.25;3.25;;;;;10.26;77.12;101570.03;5097684;27;45369;-83
2023/10/15 05:19:26;;;;;;;;;2.00;2.00;;;;;10.40;76.69;101588.09;5078533;27;61816;-81
2023/10/15 05:21:51;;;;;;;;;2.50;2.50;;;;;10.36;77.63;101586.47;5078243;27;57804;-83
2023/10/15 05:24:18;;;;;;;;;3.25;3.25;;;;;10.39;76.80;101594.34;5076808;28;58775;-79
2023/10/15 05:26:46;;;;;;;;;2.00;2.00;;;;;10.34;76.88;101586.56;5089683;27;45315;-81
2023/10/15 05:29:13;;;;;;;;;4.00;4.00;;;;;10.31;77.25;101584.88;5096220;27;46886;-79
2023/10/15 05:31:39;;;;;;;;;3.50;3.50;;;;;10.18;77.44;101566.78;5097003;27;45315;-81
2023/10/15 05:34:07;;;;;;;;;3.25;3.25;;;;;10.13;77.59;101568.72;5096887;27;45385;-81
2023/10/15 05:36:32;;;;;;;;;6.25;4.00;;;;;10.25;77.12;101594.88;5096713;27;45321;-80
2023/10/15 05:38:57;;;;;;;;;4.00;4.00;;;;;10.20;76.61;101597.69;5094321;27;45255;-80
2023/10/15 05:41:24;;;;;;;;;5.50;3.75;;;;;10.21;78.17;101604.78;5097169;27;50877;-81
2023/10/15 05:43:50;;;;;;;;;5.25;4.00;;;;;10.04;77.62;101589.44;5090880;27;45453;-81
2023/10/15 05:46:15;;;;;;;;;3.00;3.00;;;;;9.79;77.68;101562.06;5086911;27;45354;-81
2023/10/15 05:48:40;;;;;;;;;3.00;3.00;;;;;9.87;78.55;101591.84;5089680;27;45494;-80
2023/10/15 05:51:09;;;;;;;;;4.00;2.50;;;;;9.92;79.17;101610.28;5097438;27;45254;-80
2023/10/15 05:53:34;;;;;;;;;0.25;0.00;;;;;9.87;79.67;101615.75;5084792;27;45865;-79
2023/10/15 05:56:00;;;;;;;;;3.75;3.75;;;;;9.70;79.31;101588.94;5079753;27;45347;-81
2023/10/15 05:58:25;;;;;;;;;3.75;3.75;;;;;9.73;79.33;101618.06;5079587;27;45394;-82
2023/10/15 06:00:50;;;;;;;;;1.00;1.00;;;;;9.60;79.91;101612.31;5081134;27;45346;-78
2023/10/15 06:03:16;;;;;;;;;3.00;3.00;;;;;9.40;80.74;101590.94;5082699;27;46016;-81
2023/10/15 06:05:41;;;;;;;;;5.75;3.00;;;;;9.43;80.42;101598.78;5086541;27;46199;-80
2023/10/15 06:08:07;;;;;;;;;2.00;2.00;;;;;9.59;81.00;101623.00;5083534;27;45556;-81
2023/10/15 06:10:33;;;;;;;;;3.75;2.00;;;;;9.27;80.74;101593.13;5092347;27;45439;-81
2023/10/15 06:12:58;;;;;;;;;4.25;3.00;;;;;9.30;80.64;101593.03;5088735;27;45935;-79
2023/10/15 06:15:24;;;;;;;;;2.50;2.50;;;;;9.53;81.38;101640.03;5098440;27;45357;-81
2023/10/15 06:17:50;;;;;;;;;5.25;3.00;;;;;9.52;81.54;101634.78;5115498;27;45344;-80
2023/10/15 06:20:15;;;;;;;;;8.00;4.00;;;;;9.38;81.55;101617.53;5100843;27;45413;-80
2023/10/15 06:22:41;;;;;;;;;2.00;2.00;;;;;9.52;80.57;101645.41;5095067;27;46008;-80
2023/10/15 06:25:08;;;;;;;;;6.00;3.50;;;;;9.49;80.83;101650.78;5085752;27;45663;-83
2023/10/15 06:27:37;;;;;;;;;7.50;4.00;;;;;9.34;80.38;101615.00;5078916;27;45631;-81
2023/10/15 06:30:16;;;;;;;;;2.25;2.25;;;;;9.48;81.04;101647.25;5090479;27;45706;-81
2023/10/15 06:32:43;;;;;;;;;6.00;3.00;;;;;9.23;80.65;101596.81;5090786;27;46141;-80
2023/10/15 06:35:09;;;;;;;;;3.00;3.00;;;;;9.62;80.32;101657.41;5097427;27;45386;-81
2023/10/15 06:37:38;;;;;;;;;11.50;9.50;;;;;9.58;80.25;101640.72;5099595;27;45488;-81
2023/10/15 06:40:08;;;;;;;;;4.00;3.00;;;;;9.78;79.51;101650.66;5093698;27;45456;-79
2023/10/15 06:42:34;;;;;;;;;3.25;3.25;;;;;9.55;79.33;101616.94;5096667;27;45381;-81
2023/10/15 06:44:59;;;;;;;;;3.00;3.00;;;;;9.65;79.21;101625.44;5093314;27;45359;-81
2023/10/15 06:47:24;;;;;;;;;4.50;3.00;;;;;9.78;78.34;101637.38;5097198;27;45489;-81
2023/10/15 06:49:53;;;;;;;;;6.00;6.00;;;;;9.92;78.40;101669.63;5094026;27;45429;-80
2023/10/15 06:52:19;;;;;;;;;4.00;4.00;;;;;9.67;78.86;101620.94;5078758;27;45405;-81
2023/10/15 06:54:44;;;;;;;;;3.25;3.00;;;;;9.99;78.15;101657.81;5078655;27;45515;-81
2023/10/15 06:57:09;;;;;;;;;3.50;2.75;;;;;10.04;78.42;101670.97;5078259;28;45243;-81
2023/10/15 06:59:34;;;;;;;;;3.50;3.00;;;;;9.93;77.57;101650.09;5079140;27;57048;-80
2023/10/15 07:02:00;;;;;;;;;6.75;5.25;;;;;10.08;77.28;101685.00;5087284;27;67324;-79
2023/10/15 07:04:29;;;;;;;;;3.00;3.00;;;;;10.04;77.57;101670.97;5083693;27;46563;-81
2023/10/15 07:06:54;;;;;;;;;6.25;2.75;;;;;10.20;77.76;101692.53;5079106;27;45418;-80
2023/10/15 07:09:19;;;;;;;;;4.00;4.00;;;;;10.05;77.22;101656.75;5076828;27;52416;-80
2023/10/15 07:11:45;;;;;;;;;3.00;3.00;;;;;10.34;76.60;101692.91;5084059;27;45513;-79
2023/10/15 07:14:10;;;;;;;;;5.50;4.00;;;;;10.09;76.04;101639.75;5091372;27;45393;-81
2023/10/15 07:16:35;;;;;;;;;3.50;3.50;;;;;10.42;76.38;101704.13;5082454;27;45483;-80
2023/10/15 07:19:01;;;;;;;;;3.00;3.00;;;;;10.28;75.83;101669.19;5083020;27;45451;-83
2023/10/15 07:21:27;;;;;;;;;3.50;3.50;;;;;10.22;75.87;101648.16;5096979;27;45499;-80
2023/10/15 07:23:53;;;;;;;;;3.50;3.50;;;;;10.52;75.46;101699.31;5097824;27;45395;-83
2023/10/15 07:26:18;;;;;;;;;3.75;3.75;;;;;10.58;74.70;101691.97;5098001;27;45437;-82
2023/10/15 07:28:44;;;;;;;;;2.25;2.25;;;;;10.13;74.62;101619.22;5081075;27;45367;-81
2023/10/15 07:31:12;;;;;;;;;3.25;3.25;;;;;10.74;74.36;101704.69;5088086;28;45294;-81
2023/10/15 07:33:37;;;;;;;;;3.00;2.00;;;;;10.80;73.74;101715.06;5107273;27;44933;-81
2023/10/15 07:36:03;;;;;;;;;3.50;2.00;;;;;10.93;73.05;101695.03;5104506;27;45321;-81
2023/10/15 07:38:28;;;;;;;;;3.25;3.25;;;;;11.05;72.46;101694.53;5102760;27;45607;-81
2023/10/15 07:40:57;;;;;;;;;5.00;5.00;;;;;11.05;72.28;101701.66;5089830;27;45618;-81
2023/10/15 07:43:25;;;;;;;;;6.25;3.00;;;;;11.08;72.57;101705.09;5090792;27;45373;-81
2023/10/15 07:45:50;;;;;;;;;3.75;3.75;;;;;10.92;72.04;101669.34;5084635;27;45502;-81
2023/10/15 07:48:16;;;;;;;;;7.00;3.00;;;;;11.16;71.23;101710.94;5080560;28;45692;-82
2023/10/15 07:50:45;;;;;;;;;3.75;3.25;;;;;11.12;71.58;101693.38;5082358;27;46186;-80
2023/10/15 07:53:10;;;;;;;;;5.00;3.00;;;;;11.26;71.20;101723.91;5085795;28;45365;-80
2023/10/15 07:55:36;;;;;;;;;2.50;2.50;;;;;11.31;70.63;101728.09;5079020;28;45329;-81
2023/10/15 07:58:01;;;;;;;;;3.00;3.00;;;;;11.35;69.75;101735.06;5082662;28;45272;-82
2023/10/15 08:00:29;;;;;;;;;5.00;3.75;;;;;11.35;69.48;101712.88;5083427;28;45406;-81
2023/10/15 08:02:58;;;;;;;;;3.00;3.00;;;;;11.43;69.62;101727.59;5080783;28;45429;-81
2023/10/15 08:05:24;;;;;;;;;3.00;2.00;;;;;11.50;70.26;101733.53;5081294;28;45423;-80
2023/10/15 08:07:51;;;;;;;;;3.00;3.00;;;;;11.55;69.18;101730.69;5079877;27;45266;-80
2023/10/15 08:10:20;;;;;;;;;7.25;3.25;;;;;11.59;69.11;101727.84;5081177;28;46295;-79
2023/10/15 08:12:49;;;;;;;;;4.25;4.25;;;;;11.55;68.77;101715.56;5083358;27;45333;-80
2023/10/15 08:15:15;;;;;;;;;3.00;3.00;;;;;11.65;68.65;101732.91;5079942;27;45459;-80
2023/10/15 08:17:41;;;;;;;;;3.25;3.25;;;;;11.72;68.43;101747.72;5082895;28;45583;-80
2023/10/15 08:20:09;;;;;;;;;3.00;3.00;;;;;11.82;67.83;101730.41;5081696;28;46331;-81
2023/10/15 08:22:35;;;;;;;;;4.50;3.00;;;;;11.93;67.86;101729.06;5078600;28;45248;-79
2023/10/15 08:25:00;;;;;;;;;2.50;2.50;;;;;12.00;67.31;101738.56;5080705;27;45438;-81
2023/10/15 08:27:26;;;;;;;;;3.50;2.50;;;;;12.03;66.64;101727.75;5077828;27;45219;-80
2023/10/15 08:29:51;;;;;;;;;4.00;2.25;;;;;12.15;65.65;101748.53;5080965;28;47883;-80
2023/10/15 08:32:16;;;;;;;;;3.00;2.75;;;;;12.15;66.02;101753.88;5077188;27;45323;-80
2023/10/15 08:34:45;;;;;;;;;4.00;4.00;;;;;12.17;66.72;101748.47;5076628;28;56309;-80
2023/10/15 08:37:11;;;;;;;;;3.00;3.00;;;;;12.24;66.08;101750.81;5081045;27;45595;-81
2023/10/15 08:39:39;;;;;;;;;8.50;6.75;;;;;12.22;66.14;101743.78;5078145;28;45999;-79
2023/10/15 08:42:16;;;;;;;;;12.00;6.75;;;;;12.35;65.62;101755.63;5093293;27;45888;-81
2023/10/15 08:44:43;;;;;;;;;4.00;2.00;;;;;12.44;64.63;101746.38;5077672;27;45374;-80
2023/10/15 08:47:11;;;;;;;;;4.50;2.00;;;;;12.42;64.36;101743.78;5096565;27;45319;-80
2023/10/15 08:49:44;;;;;;;;;2.00;1.00;;;;;12.36;63.53;101726.22;5075703;28;48715;-81
2023/10/15 08:52:10;;;;;;;;;1.25;1.25;;;;;12.51;63.01;101759.38;5075544;28;45399;-81
2023/10/15 08:54:38;;;;;;;;;3.75;2.00;;;;;12.45;62.48;101767.63;5077068;27;45521;-80
2023/10/15 08:57:09;;;;;;;;;5.75;2.00;;;;;12.32;62.95;101745.97;5078122;27;45484;-81
2023/10/15 08:59:38;;;;;;;;;4.00;1.00;;;;;12.45;62.38;101761.44;5076191;28;47639;-81
2023/10/15 09:02:08;;;;;;;;;5.00;2.75;;;;;12.37;62.90;101749.31;5077592;27;45221;-81
2023/10/15 09:04:34;;;;;;;;;5.50;3.50;;;;;12.45;62.33;101761.44;5078155;27;45471;-81
2023/10/15 09:07:01;;;;;;;;;1.00;1.00;;;;;12.38;61.51;101753.72;5077220;27;45568;-81
2023/10/15 09:09:29;;;;;;;;;3.25;3.25;;;;;12.50;61.99;101756.75;5079588;27;45436;-80
2023/10/15 09:11:55;;;;;;;;;2.67;1.67;;;;;12.57;61.64;101755.53;5079208;27;45299;-81
2023/10/15 09:14:58;;;;;;;;;1.00;1.00;;;;;12.72;61.76;101757.50;5082818;27;45318;-78
2023/10/15 09:17:26;;;;;;;;;1.00;1.00;;;;;12.84;60.25;101775.63;5037206;28;45269;-81
2023/10/15 09:19:52;;;;;;;;;1.00;1.00;;;;;12.84;60.21;101780.09;5036642;28;45354;-81
2023/10/15 09:22:17;;;;;;;;;2.00;2.00;;;;;12.83;59.54;101768.53;5058598;27;45455;-80
2023/10/15 09:24:44;;;;;;;;;0.33;0.33;;;;;12.95;60.27;101776.00;5081574;27;57171;-81
2023/10/15 09:27:10;;;;;;;;;2.00;1.00;;;;;12.82;59.12;101734.78;5083457;27;45450;-80
2023/10/15 09:29:38;;;;;;;;;1.00;1.00;;;;;13.22;58.11;101771.16;5085291;27;45313;-81
2023/10/15 09:32:04;;;;;;;;;2.00;1.33;;;;;13.46;57.64;101769.09;5084039;27;45301;-82
2023/10/15 09:34:31;;;;;;;;;0.33;0.33;;;;;13.54;56.92;101761.59;5086199;27;45193;-82
2023/10/15 09:37:00;;;;;;;;;2.00;1.00;;;;;13.65;56.65;101769.03;5082861;27;45326;-81
2023/10/15 09:39:26;;;;;;;;;1.00;1.00;;;;;13.50;56.81;101746.63;5078335;28;47152;-81
2023/10/15 09:42:05;;;;;;;;;1.00;1.00;;;;;13.60;55.65;101756.88;5079953;28;45336;-81
2023/10/15 09:44:35;;;;;;;;;2.00;1.00;;;;;13.65;53.62;101773.53;5088097;27;44695;-82
2023/10/15 09:47:03;;;;;;;;;1.00;1.00;;;;;13.76;53.71;101777.41;5083212;27;46187;-79
2023/10/15 09:49:33;;;;;;;;;1.33;1.00;;;;;13.74;53.57;101762.38;5083143;27;45402;-81
2023/10/15 09:52:05;;;;;;;;;0.33;0.33;;;;;13.88;53.45;101776.78;5087337;28;45498;-82
2023/10/15 09:54:35;;;;;;;;;0.00;0.00;;;;;13.84;51.50;101777.03;5088923;27;45231;-81
2023/10/15 09:57:03;;;;;;;;;0.67;0.00;;;;;13.46;52.39;101774.44;5086738;27;45394;-82
2023/10/15 09:59:30;;;;;;;;;0.00;0.00;;;;;13.35;51.83;101765.22;5085240;28;47141;-80
2023/10/15 10:02:05;;;;;;;;;2.00;0.00;;;;;13.56;51.79;101781.06;5085557;28;45531;-80
2023/10/15 10:04:40;;;;;;;;;0.00;0.00;;;;;13.61;52.02;101780.84;5086994;27;45267;-81
2023/10/15 10:07:38;;;;;;;;;1.00;1.00;;;;;13.82;52.12;101786.94;5083306;28;45346;-82
2023/10/15 10:10:24;;;;;;;;;1.00;1.00;;;;;14.09;50.44;101780.16;5087303;27;45435;-82
2023/10/15 10:13:22;;;;;;;;;0.00;0.00;;;;;14.41;50.16;101790.97;5083852;28;45452;-82
2023/10/15 10:15:57;;;;;;;;;0.00;0.00;;;;;14.73;48.54;101787.50;5086119;28;45615;-81
2023/10/15 10:18:29;;;;;;;;;2.00;0.00;;;;;15.10;46.36;101784.56;5084418;28;45356;-83
2023/10/15 10:20:56;;;;;;;;;1.00;0.00;;;;;15.31;44.29;101783.38;5080092;27;46292;-81
2023/10/15 10:23:22;;;;;;;;;3.00;0.00;;;;;15.57;44.55;101782.72;5080724;27;45371;-81
2023/10/15 10:25:51;;;;;;;;;0.00;0.00;;;;;15.70;43.62;101774.00;5083006;27;45436;-82
2023/10/15 10:28:20;;;;;;;;;0.00;0.00;;;;;15.77;43.85;101757.47;5096568;27;45334;-80
2023/10/15 10:30:56;;;;;;;;;0.00;0.00;;;;;16.17;42.90;101780.09;5078504;27;46439;-80
2023/10/15 10:33:43;;;;;;;;;2.00;0.00;;;;;16.22;42.69;101798.59;5080610;27;46080;-81
2023/10/15 10:36:18;;;;;;;;;2.00;0.67;;;;;16.37;43.31;101769.94;5082042;28;45322;-81
2023/10/15 10:38:56;;;;;;;;;1.00;1.00;;;;;16.64;43.64;101778.97;5083150;28;45334;-81
2023/10/15 10:41:33;;;;;;;;;0.00;0.00;;;;;17.15;42.53;101795.47;5087408;28;45357;-82
2023/10/15 10:43:58;;;;;;;;;0.00;0.00;;;;;17.54;41.32;101792.00;5079449;27;45322;-81
2023/10/15 10:46:24;;;;;;;;;0.00;0.00;;;;;17.61;39.51;101765.56;5079788;27;45356;-82
2023/10/15 10:49:13;;;;;;;;;1.67;0.00;;;;;17.90;38.71;101786.03;5078897;28;45296;-82
2023/10/15 10:51:42;;;;;;;;;3.67;1.00;;;;;18.11;39.04;101796.31;5080079;27;46329;-82
2023/10/15 10:54:07;;;;;;;;;1.00;1.00;;;;;18.36;39.68;101790.06;5080664;27;45265;-82
2023/10/15 10:56:39;;;;;;;;;1.00;1.00;;;;;18.71;39.71;101791.16;5081730;28;45447;-80
2023/10/15 10:59:06;;;;;;;;;0.33;0.33;;;;;18.80;38.47;101781.56;5082446;28;45654;-81
2023/10/15 11:01:42;;;;;;;;;1.00;1.00;;;;;18.46;38.62;101764.22;5080488;28;47245;-83
2023/10/15 11:04:09;;;;;;;;;4.33;3.00;;;;;18.20;39.34;101769.59;5081305;28;45447;-80
2023/10/15 11:06:36;;;;;;;;;0.33;0.33;;;;;17.89;38.73;101786.13;5079016;28;45441;-81
2023/10/15 11:09:15;;;;;;;;;0.00;0.00;;;;;17.40;39.54;101792.03;5079936;27;45416;-81
2023/10/15 11:11:53;;;;;;;;;1.00;1.00;;;;;17.31;39.61;101793.50;5089340;27;45464;-81
2023/10/15 11:14:25;;;;;;;;;2.00;0.67;;;;;17.71;40.33;101800.81;5084357;27;45446;-84
2023/10/15 11:16:51;;;;;;;;;0.00;0.00;;;;;18.16;38.36;101795.00;5100614;27;45353;-81
2023/10/15 11:19:22;;;;;;;;;0.33;0.33;;;;;18.57;38.09;101789.41;5086439;27;45500;-85
2023/10/15 11:21:50;;;;;;;;;1.33;0.00;;;;;18.97;37.11;101750.69;5100218;27;45343;-86
2023/10/15 11:24:16;;;;;;;;;0.00;0.00;;;;;19.61;37.20;101764.84;5099386;27;45406;-89
2023/10/15 11:26:43;;;;;;;;;3.67;0.33;;;;;19.89;34.53;101777.09;5098493;27;45271;-85
2023/10/15 11:29:10;;;;;;;;;0.00;0.00;;;;;20.08;35.69;101752.25;5079727;27;45586;-88
2023/10/15 11:31:44;;;;;;;;;1.67;1.67;;;;;20.30;34.63;101754.97;5098036;27;45568;-89
2023/10/15 11:34:16;;;;;;;;;1.00;1.00;;;;;20.30;34.63;101758.53;5099344;27;45420;-84
2023/10/15 11:36:43;;;;;;;;;4.00;3.00;;;;;19.95;34.90;101774.78;5090210;27;45427;-87
2023/10/15 11:39:17;;;;;;;;;0.33;0.33;;;;;19.65;35.16;101767.19;5082812;27;45527;-85
2023/10/15 11:41:51;;;;;;;;;5.67;2.33;;;;;19.10;36.05;101695.75;5095943;27;47419;-88
2023/10/15 11:44:25;;;;;;;;;2.33;1.00;;;;;19.64;35.62;101716.03;5081295;27;45596;-87